sensor_id;sensor_type;location;lat;lon;timestamp;P1;durP1;ratioP1;P2;durP2;ratioP2
63346;SDS011;49472;49.880;8.650;2024-01-15T00:01:44;50.00;;;25.80;;
63346;SDS011;49472;49.880;8.650;2024-01-15T00:04:10;57.17;;;28.53;;
63346;SDS011;49472;49.880;8.650;2024-01-15T00:06:35;52.97;;;27.40;;
63346;SDS011;49472;49.880;8.650;2024-01-15T00:09:00;54.87;;;26.13;;
63346;SDS011;49472;49.880;8.650;2024-01-15T00:11:26;61.63;;;25.73;;
63346;SDS011;49472;49.880;8.650;2024-01-15T00:13:51;46.77;;;23.57;;
63346;SDS011;49472;49.880;8.650;2024-01-15T00:16:17;43.33;;;21.73;;
63346;SDS011;49472;49.880;8.650;2024-01-15T00:18:42;55.53;;;26.93;;
63346;SDS011;49472;49.880;8.650;2024-01-15T00:21:07;58.23;;;25.20;;
63346;SDS011;49472;49.880;8.650;2024-01-15T00:23:32;55.10;;;25.90;;
63346;SDS011;49472;49.880;8.650;2024-01-15T00:25:57;47.80;;;25.27;;
63346;SDS011;49472;49.880;8.650;2024-01-15T00:28:23;54.27;;;25.23;;
63346;SDS011;49472;49.880;8.650;2024-01-15T00:30:48;65.60;;;26.30;;
63346;SDS011;49472;49.880;8.650;2024-01-15T00:33:13;53.40;;;27.03;;
63346;SDS011;49472;49.880;8.650;2024-01-15T00:35:41;59.73;;;28.20;;
63346;SDS011;49472;49.880;8.650;2024-01-15T00:38:07;56.63;;;27.33;;
63346;SDS011;49472;49.880;8.650;2024-01-15T00:40:32;50.30;;;24.03;;
63346;SDS011;49472;49.880;8.650;2024-01-15T00:42:57;50.87;;;26.27;;
63346;SDS011;49472;49.880;8.650;2024-01-15T00:45:22;59.77;;;28.00;;
63346;SDS011;49472;49.880;8.650;2024-01-15T00:47:48;50.83;;;23.97;;
63346;SDS011;49472;49.880;8.650;2024-01-15T00:50:13;61.40;;;27.97;;
63346;SDS011;49472;49.880;8.650;2024-01-15T00:52:38;55.37;;;26.83;;
63346;SDS011;49472;49.880;8.650;2024-01-15T00:55:05;55.47;;;27.30;;
63346;SDS011;49472;49.880;8.650;2024-01-15T00:57:31;60.73;;;26.93;;
63346;SDS011;49472;49.880;8.650;2024-01-15T00:59:56;51.73;;;24.20;;
63346;SDS011;49472;49.880;8.650;2024-01-15T01:02:21;40.40;;;21.53;;
63346;SDS011;49472;49.880;8.650;2024-01-15T01:04:46;48.40;;;22.30;;
63346;SDS011;49472;49.880;8.650;2024-01-15T01:07:11;49.93;;;25.30;;
63346;SDS011;49472;49.880;8.650;2024-01-15T01:09:37;68.73;;;27.60;;
63346;SDS011;49472;49.880;8.650;2024-01-15T01:12:02;56.50;;;24.00;;
63346;SDS011;49472;49.880;8.650;2024-01-15T01:14:27;42.83;;;23.20;;
63346;SDS011;49472;49.880;8.650;2024-01-15T01:16:52;53.40;;;25.30;;
63346;SDS011;49472;49.880;8.650;2024-01-15T01:19:17;53.67;;;25.47;;
63346;SDS011;49472;49.880;8.650;2024-01-15T01:21:43;55.87;;;22.80;;
63346;SDS011;49472;49.880;8.650;2024-01-15T01:24:08;49.57;;;25.70;;
63346;SDS011;49472;49.880;8.650;2024-01-15T01:26:33;52.40;;;27.10;;
63346;SDS011;49472;49.880;8.650;2024-01-15T01:28:58;55.83;;;25.67;;
63346;SDS011;49472;49.880;8.650;2024-01-15T01:31:24;56.60;;;23.40;;
63346;SDS011;49472;49.880;8.650;2024-01-15T01:33:49;45.77;;;23.70;;
63346;SDS011;49472;49.880;8.650;2024-01-15T01:36:14;65.23;;;27.27;;
63346;SDS011;49472;49.880;8.650;2024-01-15T01:38:40;50.33;;;25.10;;
63346;SDS011;49472;49.880;8.650;2024-01-15T01:41:05;47.83;;;21.53;;
63346;SDS011;49472;49.880;8.650;2024-01-15T01:43:30;60.60;;;25.97;;
63346;SDS011;49472;49.880;8.650;2024-01-15T01:45:56;45.43;;;22.67;;
63346;SDS011;49472;49.880;8.650;2024-01-15T01:48:23;52.33;;;23.93;;
63346;SDS011;49472;49.880;8.650;2024-01-15T01:50:50;48.80;;;25.33;;
63346;SDS011;49472;49.880;8.650;2024-01-15T01:53:15;56.00;;;23.87;;
63346;SDS011;49472;49.880;8.650;2024-01-15T01:55:40;51.00;;;25.50;;
63346;SDS011;49472;49.880;8.650;2024-01-15T01:58:06;42.80;;;22.93;;
63346;SDS011;49472;49.880;8.650;2024-01-15T02:00:31;52.33;;;23.63;;
63346;SDS011;49472;49.880;8.650;2024-01-15T02:02:56;35.10;;;21.50;;
63346;SDS011;49472;49.880;8.650;2024-01-15T02:05:22;45.53;;;22.03;;
63346;SDS011;49472;49.880;8.650;2024-01-15T02:07:47;58.50;;;26.13;;
63346;SDS011;49472;49.880;8.650;2024-01-15T02:10:13;47.03;;;23.47;;
63346;SDS011;49472;49.880;8.650;2024-01-15T02:12:38;36.43;;;21.37;;
63346;SDS011;49472;49.880;8.650;2024-01-15T02:15:03;36.50;;;22.50;;
63346;SDS011;49472;49.880;8.650;2024-01-15T02:17:29;41.00;;;23.60;;
63346;SDS011;49472;49.880;8.650;2024-01-15T02:19:54;43.30;;;21.47;;
63346;SDS011;49472;49.880;8.650;2024-01-15T02:22:20;49.33;;;24.90;;
63346;SDS011;49472;49.880;8.650;2024-01-15T02:24:45;44.57;;;22.07;;
63346;SDS011;49472;49.880;8.650;2024-01-15T02:27:10;43.30;;;21.73;;
63346;SDS011;49472;49.880;8.650;2024-01-15T02:29:35;47.27;;;24.57;;
63346;SDS011;49472;49.880;8.650;2024-01-15T02:32:04;45.27;;;23.17;;
63346;SDS011;49472;49.880;8.650;2024-01-15T02:34:31;42.37;;;22.83;;
63346;SDS011;49472;49.880;8.650;2024-01-15T02:36:56;42.80;;;21.57;;
63346;SDS011;49472;49.880;8.650;2024-01-15T02:39:22;37.50;;;21.30;;
63346;SDS011;49472;49.880;8.650;2024-01-15T02:41:47;40.57;;;21.87;;
63346;SDS011;49472;49.880;8.650;2024-01-15T02:44:12;47.43;;;22.60;;
63346;SDS011;49472;49.880;8.650;2024-01-15T02:46:38;50.33;;;25.23;;
63346;SDS011;49472;49.880;8.650;2024-01-15T02:49:03;41.13;;;21.50;;
63346;SDS011;49472;49.880;8.650;2024-01-15T02:51:28;46.43;;;23.53;;
63346;SDS011;49472;49.880;8.650;2024-01-15T02:53:53;47.50;;;22.80;;
63346;SDS011;49472;49.880;8.650;2024-01-15T02:56:19;41.57;;;22.30;;
63346;SDS011;49472;49.880;8.650;2024-01-15T02:58:44;41.67;;;22.40;;
63346;SDS011;49472;49.880;8.650;2024-01-15T03:01:09;35.60;;;20.83;;
63346;SDS011;49472;49.880;8.650;2024-01-15T03:03:34;34.57;;;19.50;;
63346;SDS011;49472;49.880;8.650;2024-01-15T03:06:01;51.53;;;23.30;;
63346;SDS011;49472;49.880;8.650;2024-01-15T03:08:26;44.70;;;23.13;;
63346;SDS011;49472;49.880;8.650;2024-01-15T03:10:51;36.13;;;21.00;;
63346;SDS011;49472;49.880;8.650;2024-01-15T03:13:17;46.30;;;22.87;;
63346;SDS011;49472;49.880;8.650;2024-01-15T03:15:44;42.07;;;21.60;;
63346;SDS011;49472;49.880;8.650;2024-01-15T03:18:09;46.40;;;21.93;;
63346;SDS011;49472;49.880;8.650;2024-01-15T03:20:34;38.93;;;21.83;;
63346;SDS011;49472;49.880;8.650;2024-01-15T03:22:59;38.77;;;20.50;;
63346;SDS011;49472;49.880;8.650;2024-01-15T03:25:25;34.10;;;20.53;;
63346;SDS011;49472;49.880;8.650;2024-01-15T03:27:50;47.90;;;23.60;;
63346;SDS011;49472;49.880;8.650;2024-01-15T03:30:15;42.03;;;22.73;;
63346;SDS011;49472;49.880;8.650;2024-01-15T03:32:40;48.47;;;24.67;;
63346;SDS011;49472;49.880;8.650;2024-01-15T03:35:06;44.43;;;25.07;;
63346;SDS011;49472;49.880;8.650;2024-01-15T03:37:31;33.27;;;18.97;;
63346;SDS011;49472;49.880;8.650;2024-01-15T03:39:56;40.83;;;21.00;;
63346;SDS011;49472;49.880;8.650;2024-01-15T03:42:22;44.67;;;23.10;;
63346;SDS011;49472;49.880;8.650;2024-01-15T03:44:48;38.83;;;19.90;;
63346;SDS011;49472;49.880;8.650;2024-01-15T03:47:13;35.13;;;22.20;;
63346;SDS011;49472;49.880;8.650;2024-01-15T03:49:39;39.70;;;20.93;;
63346;SDS011;49472;49.880;8.650;2024-01-15T03:52:05;41.47;;;22.10;;
63346;SDS011;49472;49.880;8.650;2024-01-15T03:54:30;39.03;;;20.47;;
63346;SDS011;49472;49.880;8.650;2024-01-15T03:56:55;48.17;;;24.37;;
63346;SDS011;49472;49.880;8.650;2024-01-15T03:59:21;32.97;;;18.90;;
63346;SDS011;49472;49.880;8.650;2024-01-15T04:01:49;38.07;;;21.13;;
63346;SDS011;49472;49.880;8.650;2024-01-15T04:04:17;44.07;;;23.17;;
63346;SDS011;49472;49.880;8.650;2024-01-15T04:06:44;35.70;;;20.97;;
63346;SDS011;49472;49.880;8.650;2024-01-15T04:09:09;34.73;;;20.10;;
63346;SDS011;49472;49.880;8.650;2024-01-15T04:11:34;37.13;;;20.83;;
63346;SDS011;49472;49.880;8.650;2024-01-15T04:14:00;46.13;;;23.00;;
63346;SDS011;49472;49.880;8.650;2024-01-15T04:16:25;43.17;;;20.93;;
63346;SDS011;49472;49.880;8.650;2024-01-15T04:18:50;38.27;;;20.67;;
63346;SDS011;49472;49.880;8.650;2024-01-15T04:21:17;40.20;;;21.30;;
63346;SDS011;49472;49.880;8.650;2024-01-15T04:23:42;38.03;;;21.43;;
63346;SDS011;49472;49.880;8.650;2024-01-15T04:26:07;40.80;;;20.90;;
63346;SDS011;49472;49.880;8.650;2024-01-15T04:28:32;40.83;;;21.87;;
63346;SDS011;49472;49.880;8.650;2024-01-15T04:30:58;42.67;;;21.57;;
63346;SDS011;49472;49.880;8.650;2024-01-15T04:33:26;45.37;;;23.27;;
63346;SDS011;49472;49.880;8.650;2024-01-15T04:35:51;48.13;;;23.77;;
63346;SDS011;49472;49.880;8.650;2024-01-15T04:38:16;41.93;;;22.47;;
63346;SDS011;49472;49.880;8.650;2024-01-15T04:40:41;39.17;;;21.80;;
63346;SDS011;49472;49.880;8.650;2024-01-15T04:43:06;45.10;;;24.57;;
63346;SDS011;49472;49.880;8.650;2024-01-15T04:45:32;36.07;;;19.53;;
63346;SDS011;49472;49.880;8.650;2024-01-15T04:47:57;41.23;;;21.10;;
63346;SDS011;49472;49.880;8.650;2024-01-15T04:50:23;47.77;;;23.63;;
63346;SDS011;49472;49.880;8.650;2024-01-15T04:52:48;36.03;;;21.43;;
63346;SDS011;49472;49.880;8.650;2024-01-15T04:55:13;37.30;;;21.13;;
63346;SDS011;49472;49.880;8.650;2024-01-15T04:57:38;41.27;;;21.87;;
63346;SDS011;49472;49.880;8.650;2024-01-15T05:00:04;35.90;;;20.17;;
63346;SDS011;49472;49.880;8.650;2024-01-15T05:02:30;42.27;;;19.50;;
63346;SDS011;49472;49.880;8.650;2024-01-15T05:04:55;37.23;;;21.40;;
63346;SDS011;49472;49.880;8.650;2024-01-15T05:07:21;34.10;;;20.53;;
63346;SDS011;49472;49.880;8.650;2024-01-15T05:09:46;38.27;;;21.33;;
63346;SDS011;49472;49.880;8.650;2024-01-15T05:12:12;37.60;;;20.30;;
63346;SDS011;49472;49.880;8.650;2024-01-15T05:14:37;41.37;;;23.70;;
63346;SDS011;49472;49.880;8.650;2024-01-15T05:17:02;35.77;;;20.77;;
63346;SDS011;49472;49.880;8.650;2024-01-15T05:19:27;39.43;;;23.30;;
63346;SDS011;49472;49.880;8.650;2024-01-15T05:21:53;38.53;;;21.77;;
63346;SDS011;49472;49.880;8.650;2024-01-15T05:24:18;41.93;;;23.20;;
63346;SDS011;49472;49.880;8.650;2024-01-15T05:26:43;36.93;;;23.23;;
63346;SDS011;49472;49.880;8.650;2024-01-15T05:29:08;36.40;;;21.67;;
63346;SDS011;49472;49.880;8.650;2024-01-15T05:31:35;41.80;;;22.27;;
63346;SDS011;49472;49.880;8.650;2024-01-15T05:34:00;38.23;;;22.90;;
63346;SDS011;49472;49.880;8.650;2024-01-15T05:36:25;43.70;;;21.67;;
63346;SDS011;49472;49.880;8.650;2024-01-15T05:38:50;45.67;;;24.63;;
63346;SDS011;49472;49.880;8.650;2024-01-15T05:41:16;44.27;;;23.47;;
63346;SDS011;49472;49.880;8.650;2024-01-15T05:43:41;32.57;;;19.97;;
63346;SDS011;49472;49.880;8.650;2024-01-15T05:46:06;42.93;;;24.90;;
63346;SDS011;49472;49.880;8.650;2024-01-15T05:48:31;31.10;;;20.33;;
63346;SDS011;49472;49.880;8.650;2024-01-15T05:50:56;47.83;;;23.60;;
63346;SDS011;49472;49.880;8.650;2024-01-15T05:53:21;45.27;;;22.93;;
63346;SDS011;49472;49.880;8.650;2024-01-15T05:55:47;43.40;;;21.70;;
63346;SDS011;49472;49.880;8.650;2024-01-15T05:58:12;42.23;;;21.07;;
63346;SDS011;49472;49.880;8.650;2024-01-15T06:00:37;44.77;;;20.10;;
63346;SDS011;49472;49.880;8.650;2024-01-15T06:03:03;39.73;;;18.60;;
63346;SDS011;49472;49.880;8.650;2024-01-15T06:05:28;45.83;;;22.70;;
63346;SDS011;49472;49.880;8.650;2024-01-15T06:07:53;39.30;;;21.53;;
63346;SDS011;49472;49.880;8.650;2024-01-15T06:10:18;44.87;;;22.73;;
63346;SDS011;49472;49.880;8.650;2024-01-15T06:12:44;37.43;;;20.57;;
63346;SDS011;49472;49.880;8.650;2024-01-15T06:15:09;46.40;;;23.80;;
63346;SDS011;49472;49.880;8.650;2024-01-15T06:17:34;37.30;;;21.60;;
63346;SDS011;49472;49.880;8.650;2024-01-15T06:20:00;44.20;;;23.73;;
63346;SDS011;49472;49.880;8.650;2024-01-15T06:22:25;42.17;;;21.90;;
63346;SDS011;49472;49.880;8.650;2024-01-15T06:24:50;44.23;;;20.17;;
63346;SDS011;49472;49.880;8.650;2024-01-15T06:27:15;39.90;;;22.63;;
63346;SDS011;49472;49.880;8.650;2024-01-15T06:29:44;43.47;;;21.83;;
63346;SDS011;49472;49.880;8.650;2024-01-15T06:32:09;46.00;;;23.90;;
63346;SDS011;49472;49.880;8.650;2024-01-15T06:34:34;40.17;;;22.80;;
63346;SDS011;49472;49.880;8.650;2024-01-15T06:37:00;39.97;;;23.23;;
63346;SDS011;49472;49.880;8.650;2024-01-15T06:39:25;40.40;;;21.87;;
63346;SDS011;49472;49.880;8.650;2024-01-15T06:41:50;44.23;;;23.10;;
63346;SDS011;49472;49.880;8.650;2024-01-15T06:44:15;47.03;;;22.90;;
63346;SDS011;49472;49.880;8.650;2024-01-15T06:46:43;36.70;;;20.80;;
63346;SDS011;49472;49.880;8.650;2024-01-15T06:49:11;44.17;;;23.77;;
63346;SDS011;49472;49.880;8.650;2024-01-15T06:51:37;46.50;;;24.90;;
63346;SDS011;49472;49.880;8.650;2024-01-15T06:54:03;38.07;;;22.10;;
63346;SDS011;49472;49.880;8.650;2024-01-15T06:56:28;38.80;;;23.23;;
63346;SDS011;49472;49.880;8.650;2024-01-15T06:58:53;42.97;;;23.03;;
63346;SDS011;49472;49.880;8.650;2024-01-15T07:01:18;27.87;;;18.60;;
63346;SDS011;49472;49.880;8.650;2024-01-15T07:03:44;44.33;;;24.43;;
63346;SDS011;49472;49.880;8.650;2024-01-15T07:06:09;32.87;;;22.23;;
63346;SDS011;49472;49.880;8.650;2024-01-15T07:08:34;40.53;;;22.97;;
63346;SDS011;49472;49.880;8.650;2024-01-15T07:10:59;32.97;;;20.30;;
63346;SDS011;49472;49.880;8.650;2024-01-15T07:13:28;42.93;;;23.23;;
63346;SDS011;49472;49.880;8.650;2024-01-15T07:15:53;42.83;;;23.20;;
63346;SDS011;49472;49.880;8.650;2024-01-15T07:18:18;40.80;;;23.10;;
63346;SDS011;49472;49.880;8.650;2024-01-15T07:20:44;38.90;;;20.53;;
63346;SDS011;49472;49.880;8.650;2024-01-15T07:23:09;34.63;;;21.20;;
63346;SDS011;49472;49.880;8.650;2024-01-15T07:25:34;36.73;;;21.50;;
63346;SDS011;49472;49.880;8.650;2024-01-15T07:27:59;37.00;;;22.30;;
63346;SDS011;49472;49.880;8.650;2024-01-15T07:30:24;36.57;;;21.80;;
63346;SDS011;49472;49.880;8.650;2024-01-15T07:32:50;31.93;;;21.47;;
63346;SDS011;49472;49.880;8.650;2024-01-15T07:35:15;51.73;;;22.17;;
63346;SDS011;49472;49.880;8.650;2024-01-15T07:37:40;39.70;;;22.33;;
63346;SDS011;49472;49.880;8.650;2024-01-15T07:40:05;44.90;;;24.03;;
63346;SDS011;49472;49.880;8.650;2024-01-15T07:42:33;39.87;;;22.33;;
63346;SDS011;49472;49.880;8.650;2024-01-15T07:44:59;45.13;;;23.90;;
63346;SDS011;49472;49.880;8.650;2024-01-15T07:47:24;40.93;;;24.07;;
63346;SDS011;49472;49.880;8.650;2024-01-15T07:49:49;38.27;;;22.80;;
63346;SDS011;49472;49.880;8.650;2024-01-15T07:52:15;36.53;;;21.33;;
63346;SDS011;49472;49.880;8.650;2024-01-15T07:54:40;42.27;;;22.57;;
63346;SDS011;49472;49.880;8.650;2024-01-15T07:57:05;38.00;;;22.40;;
63346;SDS011;49472;49.880;8.650;2024-01-15T07:59:31;38.73;;;22.93;;
63346;SDS011;49472;49.880;8.650;2024-01-15T08:01:58;43.40;;;23.57;;
63346;SDS011;49472;49.880;8.650;2024-01-15T08:04:24;37.83;;;23.83;;
63346;SDS011;49472;49.880;8.650;2024-01-15T08:06:49;40.53;;;23.10;;
63346;SDS011;49472;49.880;8.650;2024-01-15T08:09:14;34.23;;;23.20;;
63346;SDS011;49472;49.880;8.650;2024-01-15T08:11:40;41.77;;;24.53;;
63346;SDS011;49472;49.880;8.650;2024-01-15T08:14:06;38.90;;;22.53;;
63346;SDS011;49472;49.880;8.650;2024-01-15T08:16:31;33.73;;;22.03;;
63346;SDS011;49472;49.880;8.650;2024-01-15T08:18:57;32.37;;;21.63;;
63346;SDS011;49472;49.880;8.650;2024-01-15T08:21:22;42.03;;;23.97;;
63346;SDS011;49472;49.880;8.650;2024-01-15T08:23:47;43.90;;;24.00;;
63346;SDS011;49472;49.880;8.650;2024-01-15T08:26:12;42.37;;;22.70;;
63346;SDS011;49472;49.880;8.650;2024-01-15T08:28:37;45.23;;;25.10;;
63346;SDS011;49472;49.880;8.650;2024-01-15T08:31:03;41.63;;;24.33;;
63346;SDS011;49472;49.880;8.650;2024-01-15T08:33:28;37.60;;;23.30;;
63346;SDS011;49472;49.880;8.650;2024-01-15T08:35:54;39.63;;;24.27;;
63346;SDS011;49472;49.880;8.650;2024-01-15T08:38:19;32.90;;;22.10;;
63346;SDS011;49472;49.880;8.650;2024-01-15T08:40:44;45.93;;;23.63;;
63346;SDS011;49472;49.880;8.650;2024-01-15T08:43:09;37.53;;;22.27;;
63346;SDS011;49472;49.880;8.650;2024-01-15T08:45:35;41.30;;;24.13;;
63346;SDS011;49472;49.880;8.650;2024-01-15T08:48:00;40.47;;;22.83;;
63346;SDS011;49472;49.880;8.650;2024-01-15T08:50:26;35.10;;;22.27;;
63346;SDS011;49472;49.880;8.650;2024-01-15T08:52:51;41.43;;;24.57;;
63346;SDS011;49472;49.880;8.650;2024-01-15T08:55:17;39.43;;;25.47;;
63346;SDS011;49472;49.880;8.650;2024-01-15T08:57:43;40.67;;;24.60;;
63346;SDS011;49472;49.880;8.650;2024-01-15T09:00:09;38.93;;;24.27;;
63346;SDS011;49472;49.880;8.650;2024-01-15T09:02:37;36.10;;;23.13;;
63346;SDS011;49472;49.880;8.650;2024-01-15T09:05:02;40.10;;;23.70;;
63346;SDS011;49472;49.880;8.650;2024-01-15T09:07:29;38.63;;;22.27;;
63346;SDS011;49472;49.880;8.650;2024-01-15T09:09:54;37.53;;;24.20;;
63346;SDS011;49472;49.880;8.650;2024-01-15T09:12:19;37.30;;;22.70;;
63346;SDS011;49472;49.880;8.650;2024-01-15T09:14:47;38.30;;;22.90;;
63346;SDS011;49472;49.880;8.650;2024-01-15T09:17:12;35.03;;;24.27;;
63346;SDS011;49472;49.880;8.650;2024-01-15T09:19:37;37.07;;;24.00;;
63346;SDS011;49472;49.880;8.650;2024-01-15T09:22:04;36.67;;;21.77;;
63346;SDS011;49472;49.880;8.650;2024-01-15T09:24:30;42.67;;;24.10;;
63346;SDS011;49472;49.880;8.650;2024-01-15T09:26:55;44.33;;;25.50;;
63346;SDS011;49472;49.880;8.650;2024-01-15T09:29:20;36.07;;;23.80;;
63346;SDS011;49472;49.880;8.650;2024-01-15T09:31:45;35.93;;;23.07;;
63346;SDS011;49472;49.880;8.650;2024-01-15T09:34:11;49.33;;;28.80;;
63346;SDS011;49472;49.880;8.650;2024-01-15T09:36:40;40.50;;;24.10;;
63346;SDS011;49472;49.880;8.650;2024-01-15T09:39:06;40.07;;;24.07;;
63346;SDS011;49472;49.880;8.650;2024-01-15T09:41:33;42.70;;;24.90;;
63346;SDS011;49472;49.880;8.650;2024-01-15T09:43:58;35.20;;;23.23;;
63346;SDS011;49472;49.880;8.650;2024-01-15T09:46:24;42.77;;;24.97;;
63346;SDS011;49472;49.880;8.650;2024-01-15T09:48:49;37.13;;;22.80;;
63346;SDS011;49472;49.880;8.650;2024-01-15T09:51:14;39.10;;;23.20;;
63346;SDS011;49472;49.880;8.650;2024-01-15T09:53:39;34.73;;;23.63;;
63346;SDS011;49472;49.880;8.650;2024-01-15T09:56:06;40.90;;;25.40;;
63346;SDS011;49472;49.880;8.650;2024-01-15T09:58:31;40.20;;;25.20;;
63346;SDS011;49472;49.880;8.650;2024-01-15T10:00:57;43.77;;;28.13;;
63346;SDS011;49472;49.880;8.650;2024-01-15T10:03:22;36.60;;;24.77;;
63346;SDS011;49472;49.880;8.650;2024-01-15T10:05:48;38.67;;;24.83;;
63346;SDS011;49472;49.880;8.650;2024-01-15T10:08:14;38.70;;;24.27;;
63346;SDS011;49472;49.880;8.650;2024-01-15T10:10:39;36.93;;;24.87;;
63346;SDS011;49472;49.880;8.650;2024-01-15T10:13:04;39.63;;;23.27;;
63346;SDS011;49472;49.880;8.650;2024-01-15T10:15:33;34.33;;;22.27;;
63346;SDS011;49472;49.880;8.650;2024-01-15T10:17:59;33.43;;;22.80;;
63346;SDS011;49472;49.880;8.650;2024-01-15T10:20:24;40.73;;;22.90;;
63346;SDS011;49472;49.880;8.650;2024-01-15T10:22:49;34.67;;;23.73;;
63346;SDS011;49472;49.880;8.650;2024-01-15T10:25:15;38.70;;;24.20;;
63346;SDS011;49472;49.880;8.650;2024-01-15T10:27:40;39.47;;;25.27;;
63346;SDS011;49472;49.880;8.650;2024-01-15T10:30:07;36.83;;;24.00;;
63346;SDS011;49472;49.880;8.650;2024-01-15T10:32:32;29.07;;;19.93;;
63346;SDS011;49472;49.880;8.650;2024-01-15T10:34:59;33.53;;;22.73;;
63346;SDS011;49472;49.880;8.650;2024-01-15T10:37:25;34.50;;;23.20;;
63346;SDS011;49472;49.880;8.650;2024-01-15T10:39:52;33.67;;;21.83;;
63346;SDS011;49472;49.880;8.650;2024-01-15T10:42:17;32.60;;;23.07;;
63346;SDS011;49472;49.880;8.650;2024-01-15T10:44:43;29.60;;;22.13;;
63346;SDS011;49472;49.880;8.650;2024-01-15T10:47:09;38.60;;;23.03;;
63346;SDS011;49472;49.880;8.650;2024-01-15T10:49:34;31.53;;;20.77;;
63346;SDS011;49472;49.880;8.650;2024-01-15T10:52:09;31.87;;;22.30;;
63346;SDS011;49472;49.880;8.650;2024-01-15T10:54:34;32.50;;;23.27;;
63346;SDS011;49472;49.880;8.650;2024-01-15T10:57:00;33.33;;;24.33;;
63346;SDS011;49472;49.880;8.650;2024-01-15T10:59:27;35.33;;;23.87;;
63346;SDS011;49472;49.880;8.650;2024-01-15T11:01:52;34.73;;;21.63;;
63346;SDS011;49472;49.880;8.650;2024-01-15T11:04:21;37.67;;;22.10;;
63346;SDS011;49472;49.880;8.650;2024-01-15T11:06:48;37.10;;;24.37;;
63346;SDS011;49472;49.880;8.650;2024-01-15T11:09:15;33.57;;;21.60;;
63346;SDS011;49472;49.880;8.650;2024-01-15T11:11:41;44.53;;;31.07;;
63346;SDS011;49472;49.880;8.650;2024-01-15T11:14:08;36.10;;;23.37;;
63346;SDS011;49472;49.880;8.650;2024-01-15T11:16:53;37.90;;;24.30;;
63346;SDS011;49472;49.880;8.650;2024-01-15T11:19:19;36.70;;;23.53;;
63346;SDS011;49472;49.880;8.650;2024-01-15T11:21:44;35.97;;;24.10;;
63346;SDS011;49472;49.880;8.650;2024-01-15T11:24:09;34.83;;;21.53;;
63346;SDS011;49472;49.880;8.650;2024-01-15T11:29:10;32.50;;;20.13;;
63346;SDS011;49472;49.880;8.650;2024-01-15T11:31:56;39.30;;;23.20;;
63346;SDS011;49472;49.880;8.650;2024-01-15T11:34:21;46.63;;;23.33;;
63346;SDS011;49472;49.880;8.650;2024-01-15T11:41:52;32.60;;;23.10;;
63346;SDS011;49472;49.880;8.650;2024-01-15T11:44:17;30.90;;;21.60;;
63346;SDS011;49472;49.880;8.650;2024-01-15T11:46:43;28.83;;;19.87;;
63346;SDS011;49472;49.880;8.650;2024-01-15T11:49:15;29.83;;;22.03;;
63346;SDS011;49472;49.880;8.650;2024-01-15T11:51:46;26.47;;;21.40;;
63346;SDS011;49472;49.880;8.650;2024-01-15T11:54:12;35.20;;;23.30;;
63346;SDS011;49472;49.880;8.650;2024-01-15T11:56:38;31.30;;;20.23;;
63346;SDS011;49472;49.880;8.650;2024-01-15T11:59:03;27.83;;;21.30;;
63346;SDS011;49472;49.880;8.650;2024-01-15T12:01:30;29.60;;;19.47;;
63346;SDS011;49472;49.880;8.650;2024-01-15T12:03:57;26.53;;;20.00;;
63346;SDS011;49472;49.880;8.650;2024-01-15T12:06:23;28.87;;;20.67;;
63346;SDS011;49472;49.880;8.650;2024-01-15T12:08:48;26.00;;;19.90;;
63346;SDS011;49472;49.880;8.650;2024-01-15T12:11:13;28.90;;;19.87;;
63346;SDS011;49472;49.880;8.650;2024-01-15T12:13:41;28.50;;;20.43;;
63346;SDS011;49472;49.880;8.650;2024-01-15T12:16:06;25.80;;;19.50;;
63346;SDS011;49472;49.880;8.650;2024-01-15T12:18:31;26.03;;;20.30;;
63346;SDS011;49472;49.880;8.650;2024-01-15T12:20:56;25.53;;;19.60;;
63346;SDS011;49472;49.880;8.650;2024-01-15T12:23:23;26.30;;;18.90;;
63346;SDS011;49472;49.880;8.650;2024-01-15T12:25:48;25.53;;;19.83;;
63346;SDS011;49472;49.880;8.650;2024-01-15T12:28:14;25.53;;;18.23;;
63346;SDS011;49472;49.880;8.650;2024-01-15T12:30:39;24.43;;;20.80;;
63346;SDS011;49472;49.880;8.650;2024-01-15T12:33:05;23.77;;;20.23;;
63346;SDS011;49472;49.880;8.650;2024-01-15T12:35:30;25.17;;;20.10;;
63346;SDS011;49472;49.880;8.650;2024-01-15T12:37:56;21.30;;;17.63;;
63346;SDS011;49472;49.880;8.650;2024-01-15T12:40:21;27.80;;;19.37;;
63346;SDS011;49472;49.880;8.650;2024-01-15T12:42:47;26.60;;;19.63;;
63346;SDS011;49472;49.880;8.650;2024-01-15T12:45:12;21.23;;;18.90;;
63346;SDS011;49472;49.880;8.650;2024-01-15T12:47:38;23.60;;;19.53;;
63346;SDS011;49472;49.880;8.650;2024-01-15T12:50:10;20.83;;;18.30;;
63346;SDS011;49472;49.880;8.650;2024-01-15T12:52:36;22.30;;;18.90;;
63346;SDS011;49472;49.880;8.650;2024-01-15T12:55:03;21.47;;;19.20;;
63346;SDS011;49472;49.880;8.650;2024-01-15T12:57:28;20.93;;;18.77;;
63346;SDS011;49472;49.880;8.650;2024-01-15T12:59:54;18.73;;;16.77;;
63346;SDS011;49472;49.880;8.650;2024-01-15T13:02:19;26.60;;;18.30;;
63346;SDS011;49472;49.880;8.650;2024-01-15T13:04:44;20.20;;;17.80;;
63346;SDS011;49472;49.880;8.650;2024-01-15T13:07:09;19.63;;;17.53;;
63346;SDS011;49472;49.880;8.650;2024-01-15T13:09:35;24.87;;;19.20;;
63346;SDS011;49472;49.880;8.650;2024-01-15T13:12:00;21.60;;;18.20;;
63346;SDS011;49472;49.880;8.650;2024-01-15T13:14:26;21.93;;;18.37;;
63346;SDS011;49472;49.880;8.650;2024-01-15T13:16:52;20.80;;;18.60;;
63346;SDS011;49472;49.880;8.650;2024-01-15T13:19:18;21.53;;;18.40;;
63346;SDS011;49472;49.880;8.650;2024-01-15T13:21:44;21.10;;;18.57;;
63346;SDS011;49472;49.880;8.650;2024-01-15T13:24:09;22.13;;;18.17;;
63346;SDS011;49472;49.880;8.650;2024-01-15T13:26:34;26.37;;;17.30;;
63346;SDS011;49472;49.880;8.650;2024-01-15T13:29:00;22.03;;;18.30;;
63346;SDS011;49472;49.880;8.650;2024-01-15T13:31:26;21.30;;;18.47;;
63346;SDS011;49472;49.880;8.650;2024-01-15T13:33:52;24.80;;;18.80;;
63346;SDS011;49472;49.880;8.650;2024-01-15T13:36:17;22.37;;;17.57;;
63346;SDS011;49472;49.880;8.650;2024-01-15T13:38:42;20.50;;;18.00;;
63346;SDS011;49472;49.880;8.650;2024-01-15T13:41:08;20.37;;;18.27;;
63346;SDS011;49472;49.880;8.650;2024-01-15T13:43:33;23.27;;;18.97;;
63346;SDS011;49472;49.880;8.650;2024-01-15T13:45:59;20.37;;;18.10;;
63346;SDS011;49472;49.880;8.650;2024-01-15T13:48:24;21.23;;;17.97;;
63346;SDS011;49472;49.880;8.650;2024-01-15T13:50:49;20.77;;;18.57;;
63346;SDS011;49472;49.880;8.650;2024-01-15T13:53:15;22.90;;;18.00;;
63346;SDS011;49472;49.880;8.650;2024-01-15T13:55:41;19.80;;;17.70;;
63346;SDS011;49472;49.880;8.650;2024-01-15T13:58:06;21.37;;;17.50;;
63346;SDS011;49472;49.880;8.650;2024-01-15T14:00:32;20.13;;;18.00;;
63346;SDS011;49472;49.880;8.650;2024-01-15T14:02:57;21.83;;;19.50;;
63346;SDS011;49472;49.880;8.650;2024-01-15T14:05:23;22.80;;;18.23;;
63346;SDS011;49472;49.880;8.650;2024-01-15T14:07:49;21.47;;;18.53;;
63346;SDS011;49472;49.880;8.650;2024-01-15T14:10:14;21.40;;;19.20;;
63346;SDS011;49472;49.880;8.650;2024-01-15T14:12:39;20.70;;;18.50;;
63346;SDS011;49472;49.880;8.650;2024-01-15T14:15:05;19.50;;;17.60;;
63346;SDS011;49472;49.880;8.650;2024-01-15T14:17:31;21.57;;;17.27;;
63346;SDS011;49472;49.880;8.650;2024-01-15T14:19:56;20.07;;;18.07;;